createdAt,value
2023-05-18T00:02:49.639Z,2.63
2023-05-18T00:05:51.803Z,1.90
2023-05-18T00:08:54.073Z,2.58
2023-05-18T00:11:56.591Z,2.55
2023-05-18T00:14:58.924Z,2.60
2023-05-18T00:18:01.132Z,2.53
2023-05-18T00:21:03.269Z,2.45
2023-05-18T00:24:05.627Z,3.00
2023-05-18T00:27:07.792Z,2.95
2023-05-18T00:30:10.366Z,2.90
2023-05-18T00:33:12.430Z,2.55
2023-05-18T00:36:14.952Z,2.53
2023-05-18T00:39:17.009Z,2.60
2023-05-18T00:42:19.057Z,2.22
2023-05-18T00:45:21.756Z,3.22
2023-05-18T00:48:23.912Z,2.03
2023-05-18T00:51:26.526Z,2.13
2023-05-18T00:54:28.716Z,2.30
2023-05-18T00:57:30.937Z,1.67
2023-05-18T01:00:34.110Z,2.53
2023-05-18T01:03:39.385Z,1.70
2023-05-18T01:06:43.137Z,2.42
2023-05-18T01:09:45.553Z,2.45
2023-05-18T01:13:03.316Z,2.47
2023-05-18T01:16:10.259Z,2.42
2023-05-18T01:19:24.506Z,3.00
2023-05-18T01:22:45.359Z,2.53
2023-05-18T01:25:53.713Z,2.42
2023-05-18T01:31:58.972Z,2.63
2023-05-18T01:35:02.240Z,3.03
2023-05-18T01:38:05.855Z,3.03
2023-05-18T01:41:16.752Z,3.78
2023-05-18T01:44:18.856Z,3.08
2023-05-18T01:47:21.044Z,2.60
2023-05-18T01:50:38.058Z,3.63
2023-05-18T01:53:46.742Z,2.95
2023-05-18T01:56:52.261Z,3.13
2023-05-18T01:59:55.537Z,2.60
2023-05-18T02:02:58.216Z,3.03
2023-05-18T02:06:00.474Z,2.35
2023-05-18T02:09:05.834Z,2.95
2023-05-18T02:12:08.662Z,4.30
2023-05-18T02:15:11.143Z,3.85
2023-05-18T02:18:13.249Z,3.63
2023-05-18T02:21:15.473Z,3.30
2023-05-18T02:24:20.715Z,3.92
2023-05-18T02:27:22.713Z,2.83
2023-05-18T02:30:24.678Z,3.35
2023-05-18T02:33:26.910Z,3.55
2023-05-18T02:36:37.291Z,2.60
2023-05-18T02:39:40.493Z,2.78
2023-05-18T02:42:43.256Z,3.47
2023-05-18T02:45:46.266Z,4.00
2023-05-18T02:48:48.535Z,3.35
2023-05-18T02:51:50.946Z,3.58
2023-05-18T02:54:54.922Z,3.03
2023-05-18T02:58:08.419Z,4.13
2023-05-18T03:01:37.046Z,3.42
2023-05-18T03:04:39.224Z,3.83
2023-05-18T03:07:42.404Z,3.45
2023-05-18T03:10:45.500Z,3.53
2023-05-18T03:13:48.742Z,3.58
2023-05-18T03:16:54.450Z,3.00
2023-05-18T03:19:58.820Z,3.28
2023-05-18T03:23:01.188Z,3.95
2023-05-18T03:26:04.050Z,4.20
2023-05-18T03:29:06.547Z,4.78
2023-05-18T03:32:08.632Z,4.93
2023-05-18T03:35:11.784Z,5.40
2023-05-18T03:38:15.046Z,5.10
2023-05-18T03:41:22.350Z,4.83
2023-05-18T03:44:25.612Z,4.13
2023-05-18T03:47:27.873Z,4.70
2023-05-18T03:50:30.290Z,4.75
2023-05-18T03:53:33.971Z,4.15
2023-05-18T03:56:36.048Z,4.25
2023-05-18T03:59:38.498Z,4.70
2023-05-18T04:02:40.834Z,4.70
2023-05-18T04:05:46.650Z,5.32
2023-05-18T04:08:52.483Z,5.10
2023-05-18T04:11:54.701Z,4.80
2023-05-18T04:15:01.356Z,3.83
2023-05-18T04:18:04.014Z,4.15
2023-05-18T04:21:07.168Z,5.68
2023-05-18T04:24:10.821Z,4.60
2023-05-18T04:27:13.955Z,4.97
2023-05-18T04:33:38.786Z,3.35
2023-05-18T04:36:47.235Z,4.60
2023-05-18T04:39:53.480Z,3.30
2023-05-18T04:42:55.814Z,2.30
2023-05-18T04:46:02.935Z,3.15
2023-05-18T04:49:07.025Z,2.47
2023-05-18T04:52:11.230Z,3.15
2023-05-18T04:55:13.979Z,5.25
2023-05-18T04:58:17.583Z,5.50
2023-05-18T05:01:20.272Z,3.88
2023-05-18T05:04:24.033Z,2.40
2023-05-18T05:07:27.640Z,3.10
2023-05-18T05:10:29.674Z,3.15
2023-05-18T05:13:31.802Z,2.45
2023-05-18T05:16:35.190Z,3.08
2023-05-18T05:19:37.412Z,4.90
2023-05-18T05:22:40.662Z,2.22
2023-05-18T05:25:45.359Z,2.42
2023-05-18T05:28:48.028Z,2.70
2023-05-18T05:31:50.605Z,3.70
2023-05-18T05:34:53.136Z,2.17
2023-05-18T05:37:56.525Z,1.80
2023-05-18T05:41:00.512Z,2.33
2023-05-18T05:44:02.688Z,1.98
2023-05-18T05:47:05.547Z,2.47
2023-05-18T05:50:08.391Z,2.22
2023-05-18T05:53:11.055Z,2.90
2023-05-18T05:56:14.808Z,2.25
2023-05-18T05:59:17.005Z,2.63
2023-05-18T06:02:20.938Z,2.38
2023-05-18T06:05:23.525Z,1.58
2023-05-18T06:08:26.948Z,1.85
2023-05-18T06:11:30.870Z,2.50
2023-05-18T06:14:33.097Z,1.95
2023-05-18T06:17:38.830Z,3.33
2023-05-18T06:20:41.156Z,2.00
2023-05-18T06:23:44.796Z,3.15
2023-05-18T06:27:08.398Z,3.05
2023-05-18T06:30:19.428Z,3.00
2023-05-18T06:33:40.261Z,1.73
2023-05-18T06:36:51.570Z,2.30
2023-05-18T06:39:54.020Z,2.22
2023-05-18T06:42:59.029Z,3.13
2023-05-18T06:49:15.725Z,2.83
2023-05-18T06:52:17.982Z,3.92
2023-05-18T06:55:20.924Z,3.25
2023-05-18T06:58:26.191Z,2.35
2023-05-18T07:01:29.269Z,2.08
2023-05-18T07:04:34.510Z,3.22
2023-05-18T07:07:57.117Z,3.72
2023-05-18T07:11:02.699Z,3.25
2023-05-18T07:14:04.886Z,3.30
2023-05-18T07:17:11.715Z,4.10
2023-05-18T07:20:13.813Z,4.15
2023-05-18T07:23:18.953Z,3.47
2023-05-18T07:26:22.875Z,2.80
2023-05-18T07:29:25.112Z,2.00
2023-05-18T07:32:27.570Z,1.45
2023-05-18T07:35:29.977Z,2.15
2023-05-18T07:38:32.604Z,1.63
2023-05-18T07:41:35.315Z,3.03
2023-05-18T07:44:38.876Z,1.73
2023-05-18T07:47:41.006Z,2.30
2023-05-18T07:50:43.097Z,2.40
2023-05-18T07:53:46.165Z,1.60
2023-05-18T07:56:48.714Z,1.77
2023-05-18T07:59:51.358Z,2.45
2023-05-18T08:02:54.146Z,2.00
2023-05-18T08:06:19.306Z,2.22
2023-05-18T08:09:24.773Z,2.20
2023-05-18T08:12:30.078Z,2.08
2023-05-18T08:15:32.684Z,2.40
2023-05-18T08:18:35.426Z,3.03
2023-05-18T08:21:37.688Z,1.75
2023-05-18T08:27:56.140Z,2.63
2023-05-18T08:30:58.817Z,3.95
2023-05-18T08:34:05.094Z,2.45
2023-05-18T08:37:07.899Z,4.80
2023-05-18T08:40:14.766Z,3.28
2023-05-18T08:43:23.471Z,4.28
2023-05-18T08:46:51.220Z,3.45
2023-05-18T08:49:57.299Z,2.90
2023-05-18T08:53:06.253Z,3.05
2023-05-18T08:56:11.551Z,4.63
2023-05-18T08:59:18.784Z,4.18
2023-05-18T09:02:21.199Z,4.70
2023-05-18T09:05:24.049Z,3.85
2023-05-18T09:08:26.995Z,3.58
2023-05-18T09:11:29.543Z,4.53
2023-05-18T09:14:32.684Z,5.13
2023-05-18T09:17:40.472Z,2.67
2023-05-18T09:20:43.771Z,4.00
2023-05-18T09:23:48.226Z,3.55
2023-05-18T09:26:51.243Z,3.08
2023-05-18T09:29:55.228Z,4.15
2023-05-18T09:32:57.577Z,4.00
2023-05-18T09:36:02.498Z,4.80
2023-05-18T09:39:10.236Z,2.20
2023-05-18T09:42:12.644Z,3.72
2023-05-18T09:45:26.771Z,3.70
2023-05-18T09:48:28.902Z,6.22
2023-05-18T09:51:31.734Z,2.55
2023-05-18T09:54:36.084Z,2.75
2023-05-18T09:57:43.379Z,4.65
2023-05-18T10:00:56.869Z,5.82
2023-05-18T10:04:04.107Z,4.82
2023-05-18T10:07:13.920Z,3.95
2023-05-18T10:10:20.559Z,4.05
2023-05-18T10:13:26.663Z,3.60
2023-05-18T10:16:29.234Z,2.50
2023-05-18T10:19:36.239Z,2.28
2023-05-18T10:22:39.579Z,2.90
2023-05-18T10:25:45.147Z,2.92
2023-05-18T10:28:50.495Z,3.95
2023-05-18T10:31:54.769Z,3.05
2023-05-18T10:34:59.723Z,2.45
2023-05-18T10:38:05.993Z,3.60
2023-05-18T10:41:08.300Z,4.07
2023-05-18T10:44:11.019Z,7.43
2023-05-18T10:47:18.143Z,3.25
2023-05-18T10:50:25.417Z,4.47
2023-05-18T10:53:30.380Z,6.35
2023-05-18T10:56:33.063Z,4.82
2023-05-18T10:59:35.757Z,2.67
2023-05-18T11:02:43.236Z,4.20
2023-05-18T11:05:52.441Z,3.40
2023-05-18T11:08:54.854Z,2.58
2023-05-18T11:12:03.573Z,4.65
2023-05-18T11:15:06.322Z,4.25
2023-05-18T11:18:16.229Z,4.25
2023-05-18T11:21:20.872Z,5.07
2023-05-18T11:28:14.912Z,2.92
2023-05-18T11:31:18.974Z,5.80
2023-05-18T11:34:42.497Z,5.32
2023-05-18T11:37:49.597Z,4.13
2023-05-18T11:40:53.607Z,5.25
2023-05-18T11:44:18.921Z,3.92
2023-05-18T11:47:21.524Z,7.10
2023-05-18T11:50:23.626Z,4.53
2023-05-18T11:53:27.324Z,4.70
2023-05-18T11:56:33.757Z,3.85
2023-05-18T11:59:43.977Z,3.10
2023-05-18T12:02:47.930Z,3.60
2023-05-18T12:05:50.857Z,2.95
2023-05-18T12:08:54.162Z,3.78
2023-05-18T12:11:56.228Z,3.75
2023-05-18T12:15:01.091Z,3.53
2023-05-18T12:18:03.293Z,4.18
2023-05-18T12:21:06.103Z,3.17
2023-05-18T12:24:08.570Z,3.47
2023-05-18T12:27:13.302Z,4.45
2023-05-18T12:30:22.789Z,2.78
2023-05-18T12:33:25.201Z,2.30
2023-05-18T12:36:27.555Z,2.13
2023-05-18T12:39:29.638Z,2.58
2023-05-18T12:42:32.866Z,2.92
2023-05-18T12:45:35.297Z,2.65
2023-05-18T12:48:47.150Z,2.25
2023-05-18T12:51:49.205Z,4.32
2023-05-18T12:55:00.939Z,3.17
2023-05-18T12:58:18.487Z,3.47
2023-05-18T13:01:21.852Z,3.45
2023-05-18T13:04:24.253Z,2.92
2023-05-18T13:07:26.978Z,4.03
2023-05-18T13:10:33.004Z,2.95
2023-05-18T13:13:35.125Z,3.85
2023-05-18T13:16:45.356Z,3.83
2023-05-18T13:19:47.434Z,2.78
2023-05-18T13:22:52.561Z,2.33
2023-05-18T13:25:58.725Z,3.63
2023-05-18T13:29:01.188Z,2.75
2023-05-18T13:32:03.273Z,3.50
2023-05-18T13:35:06.733Z,4.35
2023-05-18T13:38:13.398Z,3.97
2023-05-18T13:41:15.725Z,4.40
2023-05-18T13:44:18.656Z,3.15
2023-05-18T13:47:20.728Z,4.43
2023-05-18T13:50:24.935Z,4.10
2023-05-18T13:53:26.895Z,3.85
2023-05-18T13:56:28.884Z,3.58
2023-05-18T13:59:55.100Z,4.15
2023-05-18T14:02:57.632Z,3.83
2023-05-18T14:05:59.815Z,3.63
2023-05-18T14:09:03.849Z,2.08
2023-05-18T14:12:07.921Z,4.47
2023-05-18T14:15:11.665Z,3.60
2023-05-18T14:18:18.189Z,4.35
2023-05-18T14:21:20.347Z,4.72
2023-05-18T14:24:22.760Z,3.22
2023-05-18T14:27:25.621Z,3.53
2023-05-18T14:30:30.216Z,3.00
2023-05-18T14:33:32.428Z,3.20
2023-05-18T14:36:37.445Z,3.17
2023-05-18T14:39:41.939Z,3.70
2023-05-18T14:42:43.986Z,4.28
2023-05-18T14:45:50.645Z,6.85
2023-05-18T14:49:01.534Z,5.85
2023-05-18T14:52:06.782Z,5.32
2023-05-18T14:58:29.788Z,4.32
2023-05-18T15:01:33.263Z,3.38
2023-05-18T15:04:36.480Z,3.67
2023-05-18T15:07:39.786Z,2.90
2023-05-18T15:10:43.334Z,3.83
2023-05-18T15:13:48.731Z,3.40
2023-05-18T15:16:50.721Z,4.65
2023-05-18T15:19:54.086Z,6.05
2023-05-18T15:22:58.219Z,5.20
2023-05-18T15:26:00.375Z,5.18
2023-05-18T15:29:04.681Z,3.83
2023-05-18T15:32:10.194Z,5.07
2023-05-18T15:35:16.507Z,4.53
2023-05-18T15:38:19.244Z,4.30
2023-05-18T15:41:26.604Z,3.42
2023-05-18T15:44:29.723Z,2.88
2023-05-18T15:47:32.055Z,5.97
2023-05-18T15:50:37.671Z,3.60
2023-05-18T15:53:40.172Z,4.68
2023-05-18T15:56:43.969Z,4.38
2023-05-18T15:59:51.280Z,5.65
2023-05-18T16:02:53.459Z,4.57
2023-05-18T16:05:55.690Z,4.05
2023-05-18T16:08:57.923Z,3.75
2023-05-18T16:12:00.050Z,3.78
2023-05-18T16:15:03.552Z,5.80
2023-05-18T16:18:06.207Z,5.80
2023-05-18T16:21:09.975Z,5.88
2023-05-18T16:24:14.660Z,4.93
2023-05-18T16:27:16.895Z,7.80
2023-05-18T16:30:19.345Z,3.47
2023-05-18T16:33:21.314Z,4.85
2023-05-18T16:36:26.481Z,4.43
2023-05-18T16:39:28.772Z,4.90
2023-05-18T16:42:31.212Z,4.72
2023-05-18T16:45:33.777Z,4.30
2023-05-18T16:48:36.307Z,7.82
2023-05-18T16:51:38.282Z,6.05
2023-05-18T16:54:40.256Z,8.40
2023-05-18T16:57:43.603Z,4.47
2023-05-18T17:00:45.662Z,5.78
2023-05-18T17:03:48.662Z,5.82
2023-05-18T17:06:52.382Z,4.50
2023-05-18T17:09:54.405Z,4.88
2023-05-18T17:12:58.196Z,4.88
2023-05-18T17:16:00.465Z,5.97
2023-05-18T17:19:06.158Z,3.28
2023-05-18T17:22:18.648Z,5.70
2023-05-18T17:25:23.887Z,3.92
2023-05-18T17:28:28.840Z,4.57
2023-05-18T17:31:31.344Z,4.43
2023-05-18T17:34:33.395Z,6.28
2023-05-18T17:37:36.218Z,5.97
2023-05-18T17:40:38.158Z,7.15
2023-05-18T17:43:40.261Z,3.55
2023-05-18T17:46:44.823Z,5.95
2023-05-18T17:49:47.641Z,5.38
2023-05-18T17:52:49.693Z,6.38
2023-05-18T17:55:54.605Z,4.75
2023-05-18T17:58:59.469Z,6.05
2023-05-18T18:02:01.735Z,6.20
2023-05-18T18:05:04.233Z,5.53
2023-05-18T18:08:06.629Z,6.63
2023-05-18T18:11:09.678Z,6.70
2023-05-18T18:14:16.495Z,8.30
2023-05-18T18:17:19.262Z,7.28
2023-05-18T18:20:21.688Z,6.93
2023-05-18T18:23:23.841Z,6.75
2023-05-18T18:26:26.872Z,10.48
2023-05-18T18:29:31.157Z,7.38
2023-05-18T18:32:33.307Z,7.10
2023-05-18T18:35:38.912Z,6.18
2023-05-18T18:38:41.993Z,6.07
2023-05-18T18:41:44.953Z,5.90
2023-05-18T18:44:47.105Z,6.88
2023-05-18T18:47:49.270Z,10.77
2023-05-18T18:50:51.605Z,7.93
2023-05-18T18:53:54.666Z,7.55
2023-05-18T18:56:56.789Z,10.10
2023-05-18T18:59:59.295Z,8.02
2023-05-18T19:03:05.102Z,7.57
2023-05-18T19:06:07.218Z,9.77
2023-05-18T19:09:09.353Z,8.73
2023-05-18T19:12:11.511Z,7.97
2023-05-18T19:15:14.037Z,11.88
2023-05-18T19:18:16.549Z,11.55
2023-05-18T19:21:19.401Z,7.95
2023-05-18T19:24:22.732Z,10.15
2023-05-18T19:27:25.037Z,10.30
2023-05-18T19:30:28.574Z,9.48
2023-05-18T19:33:35.637Z,10.43
2023-05-18T19:36:39.568Z,8.45
2023-05-18T19:39:42.938Z,9.93
2023-05-18T19:42:45.383Z,9.20
2023-05-18T19:45:49.963Z,7.75
2023-05-18T19:48:53.147Z,10.75
2023-05-18T19:52:00.292Z,9.38
2023-05-18T19:55:03.511Z,8.20
2023-05-18T19:58:06.750Z,10.85
2023-05-18T20:01:10.177Z,10.82
2023-05-18T20:04:13.301Z,11.90
2023-05-18T20:07:17.819Z,12.95
2023-05-18T20:10:19.854Z,11.45
2023-05-18T20:13:23.107Z,10.55
2023-05-18T20:16:26.608Z,8.73
2023-05-18T20:19:29.056Z,10.45
2023-05-18T20:22:31.230Z,10.98
2023-05-18T20:25:35.296Z,9.50
2023-05-18T20:28:37.559Z,8.70
2023-05-18T20:31:40.437Z,10.45
2023-05-18T20:34:44.596Z,8.13
2023-05-18T20:37:47.461Z,10.18
2023-05-18T20:40:51.386Z,7.55
2023-05-18T20:43:53.858Z,9.55
2023-05-18T20:46:56.089Z,11.23
2023-05-18T20:49:58.890Z,9.05
2023-05-18T20:53:01.397Z,9.35
2023-05-18T20:56:05.543Z,12.52
2023-05-18T20:59:10.112Z,8.27
2023-05-18T21:02:12.259Z,9.95
2023-05-18T21:05:15.174Z,9.30
2023-05-18T21:08:17.296Z,7.97
2023-05-18T21:11:19.757Z,10.00
2023-05-18T21:14:22.501Z,7.88
2023-05-18T21:17:24.571Z,8.32
2023-05-18T21:20:27.090Z,7.55
2023-05-18T21:23:29.394Z,10.98
2023-05-18T21:26:31.772Z,11.15
2023-05-18T21:29:33.770Z,11.10
2023-05-18T21:32:35.996Z,8.55
2023-05-18T21:35:38.210Z,8.13
2023-05-18T21:38:40.272Z,8.38
2023-05-18T21:41:44.408Z,10.88
2023-05-18T21:44:46.641Z,9.52
2023-05-18T21:47:50.871Z,8.30
2023-05-18T21:50:54.355Z,9.10
2023-05-18T21:53:56.405Z,10.15
2023-05-18T21:56:59.576Z,10.38
2023-05-18T22:00:02.124Z,9.18
2023-05-18T22:03:15.313Z,10.82
2023-05-18T22:06:20.589Z,11.02
2023-05-18T22:09:22.716Z,9.30
2023-05-18T22:12:24.889Z,10.18
2023-05-18T22:15:28.457Z,8.32
2023-05-18T22:18:31.043Z,9.88
2023-05-18T22:21:33.144Z,9.57
2023-05-18T22:24:35.565Z,11.10
2023-05-18T22:27:39.086Z,11.38
2023-05-18T22:30:41.219Z,10.88
2023-05-18T22:33:44.674Z,9.35
2023-05-18T22:36:46.744Z,10.40
2023-05-18T22:39:48.852Z,8.05
2023-05-18T22:42:50.937Z,9.20
2023-05-18T22:45:53.047Z,8.90
2023-05-18T22:48:55.216Z,8.93
2023-05-18T22:51:57.689Z,10.05
2023-05-18T22:54:59.970Z,9.10
2023-05-18T22:58:03.145Z,8.40
2023-05-18T23:01:06.344Z,9.15
2023-05-18T23:04:08.705Z,9.45
2023-05-18T23:07:14.097Z,10.65
2023-05-18T23:10:16.651Z,10.07
2023-05-18T23:13:19.764Z,10.27
2023-05-18T23:16:24.262Z,8.93
2023-05-18T23:19:27.003Z,8.48
2023-05-18T23:22:29.223Z,9.18
2023-05-18T23:25:31.481Z,9.93
2023-05-18T23:28:34.977Z,9.80
2023-05-18T23:31:37.916Z,8.95
2023-05-18T23:34:40.531Z,8.40
2023-05-18T23:37:43.599Z,10.00
2023-05-18T23:40:47.812Z,9.00
2023-05-18T23:43:50.640Z,9.60
2023-05-18T23:46:53.635Z,10.57
2023-05-18T23:49:56.312Z,10.30
2023-05-18T23:53:03.374Z,10.18
2023-05-18T23:56:07.170Z,10.65
2023-05-18T23:59:10.736Z,11.02
